Time;durP1;ratioP1;P1;durP2;ratioP2;P2;SDS_P1;SDS_P2;PMS_P1;PMS_P2;Temp;Humidity;BMP_temperature;BMP_pressure;BME280_temperature;BME280_humidity;BME280_pressure;Samples;Min_cycle;Max_cycle;Signal;HPM_P1;HPM_P2
2022/11/26 00:01:49;;;;;;;18.73;4.20;;;2.10;99.90;;;;;;4114231;28;20465;-71
2022/11/26 00:03:52;;;;;;;42.60;6.83;;;2.20;99.90;;;;;;4114887;28;20476;-71
2022/11/26 00:05:55;;;;;;;37.07;6.17;;;2.20;99.90;;;;;;4115075;28;20227;-72
2022/11/26 00:07:58;;;;;;;80.47;7.57;;;2.30;99.90;;;;;;4114916;28;20470;-73
2022/11/26 00:10:00;;;;;;;338.13;18.30;;;2.40;99.90;;;;;;4111654;28;20436;-72
2022/11/26 00:12:20;;;;;;;125.53;9.47;;;2.40;99.90;;;;;;4114503;28;20605;-72
2022/11/26 00:14:21;;;;;;;161.27;8.30;;;2.40;99.90;;;;;;4096944;28;20543;-73
2022/11/26 00:16:22;;;;;;;65.57;5.43;;;2.50;99.90;;;;;;4114604;28;20469;-72
2022/11/26 00:18:25;;;;;;;174.90;12.40;;;2.50;99.90;;;;;;4111720;28;20184;-72
2022/11/26 00:20:30;;;;;;;383.40;19.80;;;2.50;99.90;;;;;;4113201;28;20691;-74
2022/11/26 00:22:40;;;;;;;190.27;12.17;;;2.50;99.90;;;;;;4114492;28;20420;-72
2022/11/26 00:24:41;;;;;;;108.43;7.63;;;2.40;99.90;;;;;;4097315;29;20453;-72
2022/11/26 00:26:42;;;;;;;142.33;8.33;;;2.20;99.90;;;;;;4113846;28;20430;-73
2022/11/26 00:29:00;;;;;;;108.27;7.27;;;2.30;99.90;;;;;;4114396;28;20187;-71
2022/11/26 00:31:06;;;;;;;63.07;7.70;;;2.30;99.90;;;;;;4114173;28;20873;-70
2022/11/26 00:33:07;;;;;;;95.37;6.23;;;2.40;99.90;;;;;;4116726;28;20433;-73
2022/11/26 00:35:08;;;;;;;47.07;4.70;;;2.40;99.90;;;;;;4116277;28;20508;-72
2022/11/26 00:37:22;;;;;;;28.13;3.33;;;2.40;99.90;;;;;;4112712;28;20273;-69
2022/11/26 00:39:23;;;;;;;68.17;5.93;;;2.40;99.90;;;;;;4111967;28;20980;-71
2022/11/26 00:41:30;;;;;;;51.03;5.77;;;2.30;99.90;;;;;;4113687;28;20475;-73
2022/11/26 00:43:30;;;;;;;51.13;7.60;;;2.30;99.90;;;;;;4093910;29;20465;-72
2022/11/26 00:45:31;;;;;;;79.00;7.97;;;2.20;99.90;;;;;;4116104;28;20487;-72
2022/11/26 00:47:32;;;;;;;17.90;3.30;;;2.20;99.90;;;;;;4113257;28;20178;-72
2022/11/26 00:49:32;;;;;;;40.70;4.37;;;2.10;99.90;;;;;;4112731;28;20189;-74
2022/11/26 00:51:33;;;;;;;7.93;3.40;;;2.00;99.90;;;;;;4114077;28;20208;-69
2022/11/26 00:53:34;;;;;;;6.97;2.73;;;2.00;99.90;;;;;;4113325;28;20269;-71
2022/11/26 00:55:43;;;;;;;5.50;2.47;;;1.70;99.90;;;;;;4112650;28;20201;-74
2022/11/26 00:57:44;;;;;;;3.90;2.40;;;1.60;99.90;;;;;;4112993;28;21027;-69
2022/11/26 00:59:44;;;;;;;5.77;2.43;;;1.70;99.90;;;;;;4112756;28;20502;-68
2022/11/26 01:01:45;;;;;;;7.30;2.43;;;1.60;99.90;;;;;;4114102;28;20190;-69
2022/11/26 01:03:46;;;;;;;2.80;2.00;;;1.70;99.90;;;;;;4113276;28;20187;-68
2022/11/26 01:05:56;;;;;;;3.43;2.13;;;1.70;99.90;;;;;;4113969;28;20824;-68
2022/11/26 01:08:01;;;;;;;3.63;2.03;;;1.70;99.90;;;;;;4113099;28;20182;-69
2022/11/26 01:10:03;;;;;;;5.53;2.33;;;1.60;99.90;;;;;;4112670;28;20439;-69
2022/11/26 01:12:14;;;;;;;2.47;1.70;;;1.60;99.90;;;;;;4113818;28;20550;-69
2022/11/26 01:14:17;;;;;;;3.93;2.27;;;1.70;99.90;;;;;;4113561;28;20434;-68
2022/11/26 01:16:29;;;;;;;4.13;2.27;;;1.70;99.90;;;;;;4113869;28;20935;-68
2022/11/26 01:18:34;;;;;;;6.07;2.30;;;1.80;99.90;;;;;;4112694;28;20418;-69
2022/11/26 01:20:34;;;;;;;4.60;2.50;;;1.80;99.90;;;;;;4112823;28;20470;-69
2022/11/26 01:22:35;;;;;;;5.90;2.43;;;1.90;99.90;;;;;;4113496;28;20513;-68
2022/11/26 01:24:36;;;;;;;5.87;2.53;;;1.80;99.90;;;;;;4113909;28;20207;-68
2022/11/26 01:26:40;;;;;;;6.93;2.60;;;1.90;99.90;;;;;;4113936;28;20192;-69
2022/11/26 01:28:41;;;;;;;3.00;2.07;;;2.00;99.90;;;;;;4112684;28;20723;-68
2022/11/26 01:30:42;;;;;;;5.47;3.00;;;2.00;99.90;;;;;;4115055;28;20457;-69
2022/11/26 01:32:43;;;;;;;4.40;2.23;;;2.00;99.90;;;;;;4115309;28;20199;-71
2022/11/26 01:34:44;;;;;;;3.03;2.20;;;2.00;99.90;;;;;;4117306;28;20820;-71
2022/11/26 01:36:44;;;;;;;5.10;2.30;;;2.00;99.90;;;;;;4117545;28;20190;-70
2022/11/26 01:38:45;;;;;;;6.23;2.63;;;2.00;99.90;;;;;;4117326;28;20812;-69
2022/11/26 01:41:08;;;;;;;5.23;2.67;;;2.00;99.90;;;;;;4117175;28;20643;-69
2022/11/26 01:43:36;;;;;;;13.30;4.37;;;2.00;99.90;;;;;;4115249;28;20171;-70
2022/11/26 01:45:37;;;;;;;5.13;3.00;;;1.80;99.90;;;;;;4100423;28;20491;-69
2022/11/26 01:47:37;;;;;;;6.97;2.90;;;1.70;99.90;;;;;;4119797;28;20662;-69
2022/11/26 01:49:38;;;;;;;6.10;2.50;;;1.80;99.90;;;;;;4117550;28;20188;-69
2022/11/26 01:51:39;;;;;;;4.87;2.60;;;1.60;99.90;;;;;;4117385;28;20187;-69
2022/11/26 01:53:57;;;;;;;4.23;2.50;;;1.60;99.90;;;;;;4099570;28;20195;-69
2022/11/26 01:56:02;;;;;;;7.97;2.53;;;1.70;99.90;;;;;;4130996;28;20246;-68
2022/11/26 01:58:06;;;;;;;11.70;2.70;;;1.80;99.90;;;;;;4124143;28;20513;-68
2022/11/26 02:00:08;;;;;;;8.17;2.63;;;2.10;99.90;;;;;;4118448;28;20540;-69
2022/11/26 02:02:09;;;;;;;5.10;2.40;;;2.30;99.90;;;;;;4117344;28;20451;-70
2022/11/26 02:04:25;;;;;;;6.30;2.83;;;2.40;99.90;;;;;;4116473;28;20424;-69
2022/11/26 02:06:31;;;;;;;7.83;3.00;;;2.50;99.90;;;;;;4100850;28;20196;-69
2022/11/26 02:08:33;;;;;;;6.60;2.73;;;2.70;99.90;;;;;;4111503;28;20431;-68
2022/11/26 02:10:34;;;;;;;6.70;3.20;;;2.70;99.90;;;;;;4116305;28;20516;-68
2022/11/26 02:12:36;;;;;;;7.37;2.97;;;2.80;99.90;;;;;;4101173;28;20523;-68
2022/11/26 02:14:42;;;;;;;7.03;2.73;;;2.80;99.90;;;;;;4101350;28;20220;-68
2022/11/26 02:17:04;;;;;;;6.77;2.60;;;2.80;99.90;;;;;;4116429;28;20425;-69
2022/11/26 02:19:38;;;;;;;7.50;2.37;;;2.80;99.90;;;;;;4115817;28;20459;-70
2022/11/26 02:21:51;;;;;;;4.87;2.60;;;2.80;99.90;;;;;;4106931;28;20482;-70
2022/11/26 02:24:27;;;;;;;6.40;3.10;;;2.80;99.90;;;;;;4098801;29;20473;-69
2022/11/26 02:26:43;;;;;;;3.83;2.50;;;2.80;99.90;;;;;;4100292;28;20943;-69
2022/11/26 02:29:02;;;;;;;5.50;2.93;;;2.80;99.90;;;;;;4100404;28;20763;-69
2022/11/26 02:31:12;;;;;;;7.30;3.10;;;2.70;99.90;;;;;;4114938;28;20446;-69
2022/11/26 02:33:26;;;;;;;5.87;2.60;;;2.60;99.90;;;;;;4099670;28;20439;-69
2022/11/26 02:35:51;;;;;;;4.87;2.20;;;2.60;99.90;;;;;;4114951;28;20450;-70
2022/11/26 02:38:04;;;;;;;6.17;2.90;;;2.60;99.90;;;;;;4114977;28;20485;-69
2022/11/26 02:40:07;;;;;;;8.93;3.40;;;2.70;99.90;;;;;;4114689;28;20506;-69
2022/11/26 02:42:25;;;;;;;4.07;2.30;;;2.70;99.90;;;;;;4113450;28;20435;-69
2022/11/26 02:44:46;;;;;;;5.03;2.50;;;2.80;99.90;;;;;;4102711;28;20448;-69
2022/11/26 02:46:55;;;;;;;5.17;2.87;;;2.70;99.90;;;;;;4115841;28;20450;-69
2022/11/26 02:48:56;;;;;;;3.50;2.30;;;2.70;99.90;;;;;;4114674;28;20419;-69
2022/11/26 02:51:11;;;;;;;11.10;2.77;;;2.70;99.90;;;;;;4130775;28;20494;-68
2022/11/26 02:53:14;;;;;;;6.53;2.63;;;2.80;99.90;;;;;;4114140;28;20209;-69
2022/11/26 02:55:19;;;;;;;8.20;2.33;;;2.80;99.90;;;;;;4114944;28;20459;-69
2022/11/26 02:57:25;;;;;;;3.63;2.20;;;2.90;99.90;;;;;;4114530;28;20491;-69
2022/11/26 02:59:26;;;;;;;4.40;2.33;;;3.00;99.90;;;;;;4115843;28;20416;-69
2022/11/26 03:01:35;;;;;;;6.00;2.20;;;3.00;99.90;;;;;;4114492;28;20492;-69
2022/11/26 03:03:42;;;;;;;6.47;2.23;;;3.00;99.90;;;;;;4113695;28;20444;-70
2022/11/26 03:05:43;;;;;;;3.83;1.77;;;2.90;99.90;;;;;;4114678;28;20566;-69
2022/11/26 03:07:48;;;;;;;5.60;2.27;;;2.90;99.90;;;;;;4115705;28;20436;-69
2022/11/26 03:09:50;;;;;;;5.63;2.23;;;2.80;99.90;;;;;;4114290;28;20223;-69
2022/11/26 03:11:51;;;;;;;5.53;2.00;;;2.80;99.90;;;;;;4130477;28;20816;-70
2022/11/26 03:13:51;;;;;;;7.20;2.50;;;2.90;99.90;;;;;;4113752;28;20527;-69
2022/11/26 03:15:52;;;;;;;7.77;2.23;;;2.90;99.90;;;;;;4115751;28;20215;-69
2022/11/26 03:17:52;;;;;;;10.23;2.80;;;2.90;99.90;;;;;;4115362;28;20182;-69
2022/11/26 03:19:53;;;;;;;10.57;3.20;;;3.00;99.90;;;;;;4115239;28;20674;-70
2022/11/26 03:21:54;;;;;;;5.97;3.10;;;3.00;99.90;;;;;;4115410;28;20563;-69
2022/11/26 03:23:55;;;;;;;7.07;3.10;;;3.10;99.90;;;;;;4109188;28;20447;-69
2022/11/26 03:25:55;;;;;;;9.90;2.53;;;3.20;99.90;;;;;;4108912;28;20243;-68
2022/11/26 03:27:56;;;;;;;11.57;3.77;;;3.30;99.90;;;;;;4115224;28;20196;-69
2022/11/26 03:29:57;;;;;;;4.33;2.90;;;3.30;99.90;;;;;;4115232;28;20653;-69
2022/11/26 03:31:58;;;;;;;8.67;3.70;;;3.40;99.90;;;;;;4113906;28;20226;-69
2022/11/26 03:34:01;;;;;;;14.53;4.10;;;3.50;99.90;;;;;;4114634;28;20587;-70
2022/11/26 03:36:01;;;;;;;8.30;3.03;;;3.60;99.90;;;;;;4115399;28;20452;-69
2022/11/26 03:38:02;;;;;;;12.87;4.17;;;3.70;99.90;;;;;;4115317;28;20430;-68
2022/11/26 03:40:03;;;;;;;8.87;3.73;;;3.80;99.90;;;;;;4112735;28;20727;-69
2022/11/26 03:42:04;;;;;;;7.70;3.13;;;3.90;99.90;;;;;;4114674;28;20198;-69
2022/11/26 03:44:04;;;;;;;11.03;3.60;;;3.90;99.90;;;;;;4113111;28;20440;-68
2022/11/26 03:46:05;;;;;;;7.07;3.60;;;3.90;99.90;;;;;;4115200;28;20195;-69
2022/11/26 03:48:06;;;;;;;9.93;3.17;;;4.00;99.90;;;;;;4113673;28;20206;-69
2022/11/26 03:50:07;;;;;;;8.70;2.90;;;3.80;99.90;;;;;;4115130;28;20194;-68
2022/11/26 03:52:08;;;;;;;8.37;2.90;;;3.70;99.90;;;;;;4114847;28;20210;-69
2022/11/26 03:54:09;;;;;;;6.20;2.37;;;3.70;99.90;;;;;;4114317;28;20429;-68
2022/11/26 03:56:09;;;;;;;8.03;3.03;;;3.70;99.90;;;;;;4114853;28;20183;-70
2022/11/26 03:58:10;;;;;;;8.57;3.40;;;3.80;99.90;;;;;;4113413;28;20228;-69
2022/11/26 04:00:11;;;;;;;10.13;2.90;;;3.80;99.90;;;;;;4115060;28;20229;-69
2022/11/26 04:02:12;;;;;;;8.50;3.10;;;3.80;99.90;;;;;;4113926;28;20810;-69
2022/11/26 04:04:13;;;;;;;9.33;4.00;;;3.90;99.90;;;;;;4102851;28;20426;-69
2022/11/26 04:06:14;;;;;;;9.07;3.37;;;3.90;99.90;;;;;;4114576;28;20246;-69
2022/11/26 04:08:14;;;;;;;6.70;3.00;;;3.90;99.90;;;;;;4098849;28;20182;-69
2022/11/26 04:10:15;;;;;;;11.27;3.40;;;4.00;99.90;;;;;;4113628;28;20750;-69
2022/11/26 04:12:16;;;;;;;9.67;3.40;;;4.00;99.90;;;;;;4113642;28;20209;-69
2022/11/26 04:14:18;;;;;;;5.77;2.90;;;4.00;99.90;;;;;;4098025;29;20202;-69
2022/11/26 04:16:19;;;;;;;8.80;3.00;;;4.00;99.90;;;;;;4113660;28;20221;-69
2022/11/26 04:18:20;;;;;;;5.80;3.23;;;3.80;99.90;;;;;;4097449;29;21022;-69
2022/11/26 04:20:21;;;;;;;11.63;3.87;;;3.70;99.90;;;;;;4098652;29;20517;-69
2022/11/26 04:22:21;;;;;;;9.17;3.90;;;3.70;99.90;;;;;;4113194;28;20193;-68
2022/11/26 04:24:22;;;;;;;7.93;3.20;;;3.70;99.90;;;;;;4098065;28;20214;-69
2022/11/26 04:26:23;;;;;;;7.53;2.80;;;3.70;99.90;;;;;;4098675;28;20194;-69
2022/11/26 04:28:23;;;;;;;3.90;2.27;;;3.60;99.90;;;;;;4098560;28;20608;-69
2022/11/26 04:30:24;;;;;;;8.40;2.83;;;3.70;99.90;;;;;;4098347;29;20719;-69
2022/11/26 04:32:25;;;;;;;3.33;2.27;;;3.70;99.90;;;;;;4098282;28;20190;-69
2022/11/26 04:34:26;;;;;;;4.50;2.40;;;3.70;99.90;;;;;;4112316;28;20707;-69
2022/11/26 04:36:26;;;;;;;5.43;2.50;;;3.80;99.90;;;;;;4098582;28;20203;-69
2022/11/26 04:38:27;;;;;;;7.03;2.67;;;3.80;99.90;;;;;;4112921;28;20194;-70
2022/11/26 04:40:27;;;;;;;3.97;2.20;;;3.80;99.90;;;;;;4114272;28;20304;-69
2022/11/26 04:42:28;;;;;;;5.10;2.37;;;3.80;99.90;;;;;;4114213;28;20191;-69
2022/11/26 04:44:29;;;;;;;4.00;2.30;;;3.60;99.90;;;;;;4113611;28;20210;-69
2022/11/26 04:46:29;;;;;;;6.00;2.40;;;3.60;99.90;;;;;;4112960;28;20187;-68
2022/11/26 04:48:30;;;;;;;6.77;2.77;;;3.60;99.90;;;;;;4114381;28;20240;-69
2022/11/26 04:50:31;;;;;;;8.97;4.93;;;3.70;99.90;;;;;;4113071;28;20199;-69
2022/11/26 04:52:33;;;;;;;19.63;7.30;;;3.80;99.90;;;;;;4114303;28;20205;-69
2022/11/26 04:54:33;;;;;;;15.13;7.50;;;3.80;99.90;;;;;;4112556;28;20596;-68
2022/11/26 04:56:34;;;;;;;16.47;7.10;;;3.60;99.90;;;;;;4114181;28;20464;-68
2022/11/26 04:58:35;;;;;;;16.33;8.23;;;3.60;99.90;;;;;;4114476;28;20190;-69
2022/11/26 05:00:35;;;;;;;11.40;5.43;;;3.60;99.90;;;;;;4114134;28;20214;-69
2022/11/26 05:02:36;;;;;;;10.40;4.97;;;3.50;99.90;;;;;;4113779;28;20212;-69
2022/11/26 05:04:37;;;;;;;8.77;4.17;;;3.60;99.90;;;;;;4113680;28;20213;-69
2022/11/26 05:06:37;;;;;;;6.60;3.10;;;3.50;99.90;;;;;;4114406;28;20186;-69
2022/11/26 05:08:38;;;;;;;14.03;4.27;;;3.40;99.90;;;;;;4112825;28;20924;-69
2022/11/26 05:10:39;;;;;;;6.93;3.20;;;3.40;99.90;;;;;;4114249;28;20252;-69
2022/11/26 05:12:39;;;;;;;9.63;3.83;;;3.30;99.90;;;;;;4112269;28;20189;-69
2022/11/26 05:14:40;;;;;;;9.17;3.70;;;3.30;99.90;;;;;;4114152;28;20237;-69
2022/11/26 05:16:41;;;;;;;8.43;3.60;;;3.20;99.90;;;;;;4113988;28;20210;-69
2022/11/26 05:18:42;;;;;;;6.37;3.00;;;3.20;99.90;;;;;;4113783;28;20189;-69
2022/11/26 05:20:43;;;;;;;9.83;3.20;;;3.10;99.90;;;;;;4112608;28;20224;-69
2022/11/26 05:22:43;;;;;;;10.47;3.30;;;3.10;99.90;;;;;;4113607;28;20502;-69
2022/11/26 05:24:44;;;;;;;8.73;3.27;;;3.00;99.90;;;;;;4114342;28;20204;-69
2022/11/26 05:26:45;;;;;;;7.83;2.97;;;2.90;99.90;;;;;;4114047;28;20189;-69
2022/11/26 05:28:45;;;;;;;10.23;3.00;;;2.90;99.90;;;;;;4113901;28;20178;-69
2022/11/26 05:30:46;;;;;;;19.30;3.17;;;2.90;99.90;;;;;;4114215;28;20204;-69
2022/11/26 05:32:47;;;;;;;9.67;3.00;;;2.90;99.90;;;;;;4112411;28;20189;-68
2022/11/26 05:34:47;;;;;;;15.50;4.37;;;2.90;99.90;;;;;;4112323;28;20213;-69
2022/11/26 05:36:48;;;;;;;16.17;4.60;;;3.00;99.90;;;;;;4112653;28;20193;-70
2022/11/26 05:38:49;;;;;;;11.13;3.77;;;3.00;99.90;;;;;;4113887;28;20209;-69
2022/11/26 05:40:49;;;;;;;9.13;3.70;;;3.10;99.90;;;;;;4112587;28;20285;-69
2022/11/26 05:42:50;;;;;;;11.63;3.70;;;3.10;99.90;;;;;;4112122;28;20187;-69
2022/11/26 05:44:51;;;;;;;12.37;4.63;;;3.20;99.90;;;;;;4113682;28;20279;-69
2022/11/26 05:46:51;;;;;;;5.90;3.23;;;3.30;99.90;;;;;;4112336;28;20224;-69
2022/11/26 05:48:52;;;;;;;9.73;3.60;;;3.30;99.90;;;;;;4113870;28;20190;-69
2022/11/26 05:50:57;;;;;;;7.60;3.33;;;3.40;99.90;;;;;;4113554;28;20186;-69
2022/11/26 05:52:58;;;;;;;9.40;4.53;;;3.50;99.90;;;;;;4111012;28;20195;-69
2022/11/26 05:54:59;;;;;;;9.67;3.07;;;3.50;99.90;;;;;;4097497;28;20453;-68
2022/11/26 05:57:00;;;;;;;11.70;4.40;;;3.60;99.90;;;;;;4097300;29;20434;-69
2022/11/26 05:59:00;;;;;;;5.17;2.97;;;3.60;99.90;;;;;;4112174;28;20541;-69
2022/11/26 06:01:09;;;;;;;4.67;2.53;;;3.60;99.90;;;;;;4097301;29;20214;-69
2022/11/26 06:03:09;;;;;;;6.70;2.83;;;3.60;99.90;;;;;;4111383;28;20214;-69
2022/11/26 06:05:10;;;;;;;5.47;2.50;;;3.60;99.90;;;;;;4096387;29;20457;-69
2022/11/26 06:07:11;;;;;;;4.50;2.97;;;3.70;99.90;;;;;;4098138;29;20890;-69
2022/11/26 06:09:12;;;;;;;4.20;2.70;;;3.60;99.90;;;;;;4099833;28;20178;-69
2022/11/26 06:11:13;;;;;;;6.23;2.70;;;3.50;99.90;;;;;;4112698;28;20197;-69
2022/11/26 06:13:14;;;;;;;5.50;2.70;;;3.50;99.90;;;;;;4097100;28;20466;-69
2022/11/26 06:15:14;;;;;;;6.33;3.00;;;3.50;99.90;;;;;;4098020;28;20726;-69
2022/11/26 06:17:15;;;;;;;7.73;2.90;;;3.50;99.90;;;;;;4100462;28;20222;-69
2022/11/26 06:19:25;;;;;;;6.53;3.60;;;3.40;99.90;;;;;;4115343;28;20182;-70
2022/11/26 06:21:26;;;;;;;6.37;2.80;;;3.40;99.90;;;;;;4085199;29;20214;-67
2022/11/26 06:23:27;;;;;;;2.80;2.17;;;3.30;99.90;;;;;;4114242;28;20440;-67
2022/11/26 06:25:28;;;;;;;3.67;2.37;;;3.20;99.90;;;;;;4099245;29;20254;-67
2022/11/26 06:27:28;;;;;;;8.00;2.97;;;3.20;99.90;;;;;;4100248;29;20722;-67
2022/11/26 06:29:29;;;;;;;4.80;2.60;;;3.20;99.90;;;;;;4100372;28;20250;-69
2022/11/26 06:31:31;;;;;;;6.90;3.10;;;3.20;99.90;;;;;;4114984;28;20185;-68
2022/11/26 06:33:32;;;;;;;6.73;2.30;;;3.20;99.90;;;;;;4098358;28;20285;-68
2022/11/26 06:35:33;;;;;;;3.17;1.90;;;3.10;99.90;;;;;;4098988;29;20517;-68
2022/11/26 06:37:34;;;;;;;4.97;1.83;;;3.10;99.90;;;;;;4098881;29;20194;-68
2022/11/26 06:39:34;;;;;;;11.53;5.40;;;3.10;99.90;;;;;;4100225;28;20443;-69
2022/11/26 06:41:35;;;;;;;7.77;4.67;;;3.10;99.90;;;;;;4115885;28;20224;-69
2022/11/26 06:43:36;;;;;;;6.30;4.10;;;3.10;99.90;;;;;;4115323;28;20182;-69
2022/11/26 06:45:37;;;;;;;8.93;4.63;;;3.10;99.90;;;;;;4114579;28;20440;-69
2022/11/26 06:47:38;;;;;;;7.47;3.90;;;3.20;99.90;;;;;;4130740;28;20195;-69
2022/11/26 06:49:38;;;;;;;10.50;4.33;;;3.20;99.90;;;;;;4115832;28;20179;-68
2022/11/26 06:51:39;;;;;;;9.40;4.07;;;3.20;99.90;;;;;;4115724;28;20241;-69
2022/11/26 06:53:40;;;;;;;9.27;4.07;;;3.30;99.90;;;;;;4113839;28;20192;-68
2022/11/26 06:55:41;;;;;;;15.93;5.00;;;3.30;99.90;;;;;;4114390;28;20297;-69
2022/11/26 06:57:42;;;;;;;6.70;3.80;;;3.30;99.90;;;;;;4114601;28;20776;-68
2022/11/26 06:59:42;;;;;;;6.80;3.90;;;3.30;99.90;;;;;;4115633;28;20186;-68
2022/11/26 07:01:43;;;;;;;7.87;3.23;;;3.40;99.90;;;;;;4114301;28;20380;-69
2022/11/26 07:03:44;;;;;;;8.00;3.73;;;3.50;99.90;;;;;;4114948;28;20243;-68
2022/11/26 07:05:44;;;;;;;6.10;3.70;;;3.60;99.90;;;;;;4114161;28;20248;-69
2022/11/26 07:07:45;;;;;;;8.63;3.73;;;3.60;99.90;;;;;;4115624;28;20190;-68
2022/11/26 07:09:46;;;;;;;5.57;3.50;;;3.70;99.90;;;;;;4114233;28;20210;-68
2022/11/26 07:11:48;;;;;;;7.20;3.20;;;3.70;99.90;;;;;;4115474;28;20191;-69
2022/11/26 07:13:48;;;;;;;7.50;3.60;;;3.70;99.90;;;;;;4114953;28;20960;-69
2022/11/26 07:15:49;;;;;;;9.27;4.10;;;3.80;99.90;;;;;;4115245;28;20449;-69
2022/11/26 07:17:50;;;;;;;8.63;4.23;;;3.90;99.90;;;;;;4115249;28;20287;-69
2022/11/26 07:19:50;;;;;;;9.67;3.83;;;3.90;99.90;;;;;;4113974;28;20198;-68
2022/11/26 07:21:51;;;;;;;9.33;3.80;;;3.90;99.90;;;;;;4129942;28;20178;-68
2022/11/26 07:23:52;;;;;;;5.93;3.20;;;3.90;99.90;;;;;;4113284;28;20710;-68
2022/11/26 07:25:53;;;;;;;7.50;2.90;;;3.90;99.90;;;;;;4113668;28;20226;-69
2022/11/26 07:27:53;;;;;;;7.70;4.13;;;4.00;99.90;;;;;;4112964;28;20171;-69
2022/11/26 07:29:54;;;;;;;4.93;2.83;;;4.10;99.90;;;;;;4115057;28;20179;-69
2022/11/26 07:31:55;;;;;;;7.27;3.07;;;4.20;99.90;;;;;;4115193;28;20186;-69
2022/11/26 07:33:56;;;;;;;4.33;2.63;;;4.20;99.90;;;;;;4114773;28;20178;-69
2022/11/26 07:36:06;;;;;;;5.00;3.60;;;4.30;99.90;;;;;;4115054;28;20710;-69
2022/11/26 07:38:07;;;;;;;8.23;3.77;;;4.30;99.90;;;;;;4113943;28;20464;-69
2022/11/26 07:40:08;;;;;;;7.50;3.63;;;4.40;99.90;;;;;;4114950;28;20449;-69
2022/11/26 07:42:08;;;;;;;5.27;3.10;;;4.50;99.90;;;;;;4115270;28;20245;-69
2022/11/26 07:44:13;;;;;;;11.43;4.10;;;4.60;99.90;;;;;;4113059;28;20981;-69
2022/11/26 07:46:18;;;;;;;6.63;3.27;;;4.70;99.90;;;;;;4123228;28;20274;-69
2022/11/26 07:48:19;;;;;;;11.23;4.37;;;4.60;99.90;;;;;;4113634;28;20427;-69
2022/11/26 07:50:19;;;;;;;8.40;5.53;;;4.60;99.90;;;;;;4098967;28;21106;-69
2022/11/26 07:52:20;;;;;;;10.53;5.07;;;4.60;99.90;;;;;;4098861;29;20692;-68
2022/11/26 07:54:21;;;;;;;31.60;16.77;;;4.70;99.90;;;;;;4098006;28;20212;-68
2022/11/26 07:56:22;;;;;;;16.07;7.50;;;4.90;99.90;;;;;;4098766;29;20198;-68
2022/11/26 07:58:22;;;;;;;9.27;5.13;;;4.90;99.90;;;;;;4113516;28;20318;-69
2022/11/26 08:00:23;;;;;;;9.50;4.63;;;4.90;99.90;;;;;;4097436;29;20286;-68
2022/11/26 08:02:24;;;;;;;11.87;4.33;;;5.00;99.90;;;;;;4098701;29;20191;-69
2022/11/26 08:04:25;;;;;;;9.50;3.53;;;4.90;99.90;;;;;;4098150;29;20250;-68
2022/11/26 08:06:28;;;;;;;7.70;3.97;;;4.80;99.90;;;;;;4097654;28;20269;-68
2022/11/26 08:08:29;;;;;;;9.60;4.17;;;4.70;99.90;;;;;;4113340;28;20425;-69
2022/11/26 08:10:29;;;;;;;5.93;3.83;;;4.60;99.90;;;;;;4098606;28;20493;-69
2022/11/26 08:12:30;;;;;;;7.47;3.73;;;4.60;99.90;;;;;;4113967;28;20176;-70
2022/11/26 08:14:31;;;;;;;8.40;3.27;;;4.50;99.90;;;;;;4100577;28;20247;-68
2022/11/26 08:16:32;;;;;;;5.30;2.73;;;4.30;99.90;;;;;;4114764;28;20202;-70
2022/11/26 08:18:34;;;;;;;28.27;6.23;;;4.30;99.90;;;;;;4097540;29;20794;-68
2022/11/26 08:20:35;;;;;;;10.23;6.07;;;4.30;99.90;;;;;;4098585;28;20510;-68
2022/11/26 08:22:35;;;;;;;9.63;4.33;;;4.30;99.90;;;;;;4098106;28;20416;-68
2022/11/26 08:24:36;;;;;;;11.27;5.50;;;4.20;99.90;;;;;;4098248;28;20207;-68
2022/11/26 08:26:37;;;;;;;12.03;6.03;;;4.30;99.90;;;;;;4097036;28;20202;-69
2022/11/26 08:28:38;;;;;;;15.17;5.90;;;4.40;99.90;;;;;;4097280;29;20728;-68
2022/11/26 08:30:38;;;;;;;11.40;7.40;;;4.30;99.90;;;;;;4113028;28;20320;-68
2022/11/26 08:32:39;;;;;;;15.00;6.60;;;4.40;99.90;;;;;;4096589;29;20275;-68
2022/11/26 08:34:40;;;;;;;17.20;6.90;;;4.30;99.90;;;;;;4098583;29;20221;-68
2022/11/26 08:36:40;;;;;;;12.00;5.80;;;4.40;99.90;;;;;;4101072;28;20195;-69
2022/11/26 08:38:41;;;;;;;13.63;5.70;;;4.30;99.90;;;;;;4112925;28;20190;-68
2022/11/26 08:40:42;;;;;;;12.33;5.60;;;4.40;99.90;;;;;;4129234;28;20206;-70
2022/11/26 08:42:42;;;;;;;15.07;8.40;;;4.50;99.90;;;;;;4113742;28;20187;-68
2022/11/26 08:44:43;;;;;;;12.93;7.27;;;4.70;99.90;;;;;;4114455;28;20202;-69
2022/11/26 08:46:44;;;;;;;15.40;6.30;;;4.70;99.90;;;;;;4113546;28;20205;-69
2022/11/26 08:48:44;;;;;;;14.27;6.00;;;4.80;99.90;;;;;;4116660;28;20178;-68
2022/11/26 08:50:45;;;;;;;12.97;5.80;;;4.80;99.90;;;;;;4116680;28;20191;-69
2022/11/26 08:52:46;;;;;;;15.87;6.03;;;4.80;99.90;;;;;;4115557;28;20697;-71
2022/11/26 08:54:46;;;;;;;16.97;8.50;;;5.00;99.90;;;;;;4116824;28;20578;-69
2022/11/26 08:56:47;;;;;;;22.07;9.10;;;5.20;99.90;;;;;;4117008;28;20541;-69
2022/11/26 08:58:50;;;;;;;14.97;8.43;;;5.30;99.90;;;;;;4114944;28;20186;-68
2022/11/26 09:00:50;;;;;;;18.57;8.80;;;5.50;99.90;;;;;;4113834;28;20207;-69
2022/11/26 09:02:51;;;;;;;14.77;8.77;;;5.50;99.90;;;;;;4113010;28;20951;-69
2022/11/26 09:04:52;;;;;;;17.00;8.10;;;5.60;99.90;;;;;;4115602;28;20699;-69
2022/11/26 09:06:52;;;;;;;21.27;10.43;;;5.70;99.90;;;;;;4113736;28;20714;-69
2022/11/26 09:09:12;;;;;;;19.60;10.07;;;5.70;99.90;;;;;;4114134;28;20211;-68
2022/11/26 09:11:12;;;;;;;20.53;8.80;;;5.50;99.90;;;;;;4113108;28;20660;-69
2022/11/26 09:13:13;;;;;;;13.33;6.97;;;5.60;99.90;;;;;;4113409;28;20488;-70
2022/11/26 09:15:14;;;;;;;21.13;9.17;;;5.70;99.90;;;;;;4113076;28;20227;-70
2022/11/26 09:17:15;;;;;;;16.77;8.67;;;5.60;99.90;;;;;;4112508;28;20193;-70
2022/11/26 09:19:16;;;;;;;13.43;8.07;;;5.70;99.90;;;;;;4114097;28;20183;-69
2022/11/26 09:21:18;;;;;;;18.07;8.47;;;6.10;99.90;;;;;;4112617;28;20269;-69
2022/11/26 09:23:18;;;;;;;13.97;6.30;;;6.60;99.90;;;;;;4112313;28;20179;-70
2022/11/26 09:25:19;;;;;;;10.50;6.90;;;7.30;99.90;;;;;;4112512;28;20304;-70
2022/11/26 09:27:19;;;;;;;10.90;6.10;;;7.80;99.90;;;;;;4113278;28;20183;-70
2022/11/26 09:29:22;;;;;;;9.23;6.00;;;8.60;99.90;;;;;;4114044;28;20183;-70
2022/11/26 09:31:23;;;;;;;10.20;5.57;;;9.10;99.90;;;;;;4112720;28;20658;-70
2022/11/26 09:33:25;;;;;;;11.40;5.20;;;9.60;99.90;;;;;;4112170;28;20675;-71
2022/11/26 09:35:26;;;;;;;7.83;4.00;;;9.90;99.90;;;;;;4112618;28;20210;-68
2022/11/26 09:37:27;;;;;;;10.10;3.93;;;10.20;99.90;;;;;;4112438;28;20214;-68
2022/11/26 09:39:27;;;;;;;10.30;4.00;;;10.50;99.90;;;;;;4113739;28;20198;-69
2022/11/26 09:42:03;;;;;;;6.33;3.57;;;10.80;99.90;;;;;;4113282;28;20211;-69
2022/11/26 09:44:42;;;;;;;5.23;2.90;;;11.00;99.90;;;;;;4112978;28;20190;-68
2022/11/26 09:46:49;;;;;;;6.83;2.50;;;11.20;99.90;;;;;;4111910;28;20175;-68
2022/11/26 09:48:51;;;;;;;7.70;2.60;;;11.50;99.00;;;;;;4099198;28;20193;-68
2022/11/26 09:51:03;;;;;;;7.97;3.10;;;11.20;95.00;;;;;;4113420;28;20245;-68
2022/11/26 09:53:17;;;;;;;5.27;2.73;;;10.80;98.30;;;;;;4114847;28;20163;-68
2022/11/26 09:55:25;;;;;;;6.03;2.90;;;11.40;99.90;;;;;;4115388;28;20234;-72
2022/11/26 09:57:50;;;;;;;5.10;2.47;;;11.90;98.90;;;;;;4099410;29;20178;-69
2022/11/26 09:59:54;;;;;;;6.33;2.80;;;12.50;96.30;;;;;;4115500;28;20193;-69
2022/11/26 10:01:55;;;;;;;6.10;2.77;;;13.10;92.70;;;;;;4099339;29;20660;-69
2022/11/26 10:03:56;;;;;;;7.37;2.43;;;13.70;92.00;;;;;;4100032;29;20208;-68
2022/11/26 10:06:21;;;;;;;6.30;3.10;;;13.60;86.60;;;;;;4100652;28;20633;-68
2022/11/26 10:08:52;;;;;;;5.10;2.47;;;13.80;88.80;;;;;;4100553;28;20585;-68
2022/11/26 10:11:27;;;;;;;5.30;2.53;;;13.20;84.20;;;;;;4100534;28;20258;-69
2022/11/26 10:13:58;;;;;;;6.00;2.60;;;13.20;77.00;;;;;;4112525;28;20210;-68
2022/11/26 10:16:16;;;;;;;5.07;2.30;;;12.40;85.20;;;;;;4115486;28;20214;-69
2022/11/26 10:18:35;;;;;;;4.43;2.10;;;12.70;85.70;;;;;;4100595;28;20302;-70
2022/11/26 10:20:51;;;;;;;5.87;2.77;;;13.40;85.10;;;;;;4116446;28;20219;-68
2022/11/26 10:23:25;;;;;;;6.83;2.53;;;13.90;75.60;;;;;;4100672;28;21008;-70
2022/11/26 10:25:32;;;;;;;4.40;2.00;;;14.40;72.90;;;;;;4101255;28;20855;-70
2022/11/26 10:27:33;;;;;;;6.77;2.63;;;14.60;69.80;;;;;;4100622;28;20828;-71
2022/11/26 10:29:40;;;;;;;5.87;1.97;;;14.80;66.10;;;;;;4101619;28;20180;-70
2022/11/26 10:31:45;;;;;;;4.33;2.20;;;14.90;70.10;;;;;;4115008;28;20195;-70
2022/11/26 10:34:02;;;;;;;4.33;2.03;;;14.70;65.20;;;;;;4114323;28;20183;-70
2022/11/26 10:36:08;;;;;;;5.83;2.30;;;13.30;76.90;;;;;;4099072;28;20686;-69
2022/11/26 10:38:09;;;;;;;6.23;2.40;;;13.30;74.50;;;;;;4098799;28;20246;-70
2022/11/26 10:40:29;;;;;;;3.30;1.90;;;13.50;73.60;;;;;;4098206;28;20187;-70
2022/11/26 10:42:43;;;;;;;4.60;2.30;;;14.20;70.30;;;;;;4100173;28;20168;-70
2022/11/26 10:44:46;;;;;;;3.63;1.50;;;14.30;72.50;;;;;;4098946;29;20230;-70
2022/11/26 10:46:46;;;;;;;2.83;1.53;;;13.80;60.30;;;;;;4100007;28;20176;-70
2022/11/26 10:48:47;;;;;;;4.00;1.60;;;14.80;56.10;;;;;;4098846;29;20191;-70
2022/11/26 10:51:27;;;;;;;4.47;1.43;;;15.70;51.20;;;;;;4098643;29;20291;-71